sensor_id;sensor_type;location;lat;lon;timestamp;temperature;humidity
12847;DHT22;6492;48.128;8.320;2023-04-25T00:02:01;4.20;38.30
12847;DHT22;6492;48.128;8.320;2023-04-25T00:06:03;4.20;38.40
12847;DHT22;6492;48.128;8.320;2023-04-25T00:10:07;4.20;37.80
12847;DHT22;6492;48.128;8.320;2023-04-25T00:14:10;4.10;38.10
12847;DHT22;6492;48.128;8.320;2023-04-25T00:18:12;4.00;38.60
12847;DHT22;6492;48.128;8.320;2023-04-25T00:22:14;4.00;39.70
12847;DHT22;6492;48.128;8.320;2023-04-25T00:26:16;3.90;39.30
12847;DHT22;6492;48.128;8.320;2023-04-25T00:30:19;3.90;39.50
12847;DHT22;6492;48.128;8.320;2023-04-25T00:34:21;3.90;39.70
12847;DHT22;6492;48.128;8.320;2023-04-25T00:38:23;4.00;40.10
12847;DHT22;6492;48.128;8.320;2023-04-25T00:42:25;4.00;40.80
12847;DHT22;6492;48.128;8.320;2023-04-25T00:46:28;4.00;42.50
12847;DHT22;6492;48.128;8.320;2023-04-25T00:50:30;3.80;42.50
12847;DHT22;6492;48.128;8.320;2023-04-25T00:54:33;3.60;46.30
12847;DHT22;6492;48.128;8.320;2023-04-25T00:58:36;3.50;48.20
12847;DHT22;6492;48.128;8.320;2023-04-25T01:02:40;3.40;50.10
12847;DHT22;6492;48.128;8.320;2023-04-25T01:06:42;3.30;52.30
12847;DHT22;6492;48.128;8.320;2023-04-25T01:10:44;3.30;54.40
12847;DHT22;6492;48.128;8.320;2023-04-25T01:14:46;3.20;56.60
12847;DHT22;6492;48.128;8.320;2023-04-25T01:18:49;3.30;58.30
12847;DHT22;6492;48.128;8.320;2023-04-25T01:22:53;3.20;58.90
12847;DHT22;6492;48.128;8.320;2023-04-25T01:26:57;3.30;59.00
12847;DHT22;6492;48.128;8.320;2023-04-25T01:30:59;3.20;58.10
12847;DHT22;6492;48.128;8.320;2023-04-25T01:35:01;3.10;57.50
12847;DHT22;6492;48.128;8.320;2023-04-25T01:39:04;2.90;57.40
12847;DHT22;6492;48.128;8.320;2023-04-25T01:43:09;2.80;57.20
12847;DHT22;6492;48.128;8.320;2023-04-25T01:47:12;2.70;58.60
12847;DHT22;6492;48.128;8.320;2023-04-25T01:51:14;2.70;60.50
12847;DHT22;6492;48.128;8.320;2023-04-25T01:55:18;2.80;61.70
12847;DHT22;6492;48.128;8.320;2023-04-25T01:59:19;2.80;61.30
12847;DHT22;6492;48.128;8.320;2023-04-25T02:03:22;2.90;60.80
12847;DHT22;6492;48.128;8.320;2023-04-25T02:07:26;2.80;60.00
12847;DHT22;6492;48.128;8.320;2023-04-25T02:11:29;2.80;59.50
12847;DHT22;6492;48.128;8.320;2023-04-25T02:15:31;2.70;59.20
12847;DHT22;6492;48.128;8.320;2023-04-25T02:19:33;2.50;59.00
12847;DHT22;6492;48.128;8.320;2023-04-25T02:23:35;2.30;58.60
12847;DHT22;6492;48.128;8.320;2023-04-25T02:27:38;2.10;58.60
12847;DHT22;6492;48.128;8.320;2023-04-25T02:31:40;1.80;58.40
12847;DHT22;6492;48.128;8.320;2023-04-25T02:35:42;1.60;59.80
12847;DHT22;6492;48.128;8.320;2023-04-25T02:39:44;1.50;61.40
12847;DHT22;6492;48.128;8.320;2023-04-25T02:43:47;1.40;62.70
12847;DHT22;6492;48.128;8.320;2023-04-25T02:47:48;1.30;63.90
12847;DHT22;6492;48.128;8.320;2023-04-25T02:52:24;1.30;65.00
12847;DHT22;6492;48.128;8.320;2023-04-25T02:56:26;1.20;65.40
12847;DHT22;6492;48.128;8.320;2023-04-25T03:00:29;1.30;67.40
12847;DHT22;6492;48.128;8.320;2023-04-25T03:04:31;1.30;68.50
12847;DHT22;6492;48.128;8.320;2023-04-25T03:08:33;1.30;68.60
12847;DHT22;6492;48.128;8.320;2023-04-25T03:12:35;1.20;68.60
12847;DHT22;6492;48.128;8.320;2023-04-25T03:16:39;1.30;69.80
12847;DHT22;6492;48.128;8.320;2023-04-25T03:20:41;1.40;70.70
12847;DHT22;6492;48.128;8.320;2023-04-25T03:24:43;1.40;71.00
12847;DHT22;6492;48.128;8.320;2023-04-25T03:28:45;1.40;71.20
12847;DHT22;6492;48.128;8.320;2023-04-25T03:32:48;1.50;71.60
12847;DHT22;6492;48.128;8.320;2023-04-25T03:36:50;1.60;72.10
12847;DHT22;6492;48.128;8.320;2023-04-25T03:40:52;1.70;72.50
12847;DHT22;6492;48.128;8.320;2023-04-25T03:45:05;1.70;72.70
12847;DHT22;6492;48.128;8.320;2023-04-25T03:49:09;1.90;73.00
12847;DHT22;6492;48.128;8.320;2023-04-25T03:53:11;1.90;73.20
12847;DHT22;6492;48.128;8.320;2023-04-25T03:57:12;2.00;73.30
12847;DHT22;6492;48.128;8.320;2023-04-25T04:01:14;2.00;73.30
12847;DHT22;6492;48.128;8.320;2023-04-25T04:05:17;2.10;73.40
12847;DHT22;6492;48.128;8.320;2023-04-25T04:09:19;2.10;73.40
12847;DHT22;6492;48.128;8.320;2023-04-25T04:13:21;2.20;73.50
12847;DHT22;6492;48.128;8.320;2023-04-25T04:17:23;2.30;73.80
12847;DHT22;6492;48.128;8.320;2023-04-25T04:21:37;2.30;73.80
12847;DHT22;6492;48.128;8.320;2023-04-25T04:25:39;2.30;73.70
12847;DHT22;6492;48.128;8.320;2023-04-25T04:29:41;2.30;73.30
12847;DHT22;6492;48.128;8.320;2023-04-25T04:33:53;2.20;72.30
12847;DHT22;6492;48.128;8.320;2023-04-25T04:37:56;2.00;71.30
12847;DHT22;6492;48.128;8.320;2023-04-25T04:41:59;1.80;70.60
12847;DHT22;6492;48.128;8.320;2023-04-25T04:46:02;1.60;70.20
12847;DHT22;6492;48.128;8.320;2023-04-25T04:50:20;1.50;70.50
12847;DHT22;6492;48.128;8.320;2023-04-25T04:54:43;1.40;71.20
12847;DHT22;6492;48.128;8.320;2023-04-25T04:58:45;1.40;72.10
12847;DHT22;6492;48.128;8.320;2023-04-25T05:02:49;1.40;72.60
12847;DHT22;6492;48.128;8.320;2023-04-25T05:06:51;1.50;73.00
12847;DHT22;6492;48.128;8.320;2023-04-25T05:10:54;1.40;73.10
12847;DHT22;6492;48.128;8.320;2023-04-25T05:14:56;1.50;73.60
12847;DHT22;6492;48.128;8.320;2023-04-25T05:18:58;1.60;74.20
12847;DHT22;6492;48.128;8.320;2023-04-25T05:23:00;1.80;74.90
12847;DHT22;6492;48.128;8.320;2023-04-25T05:27:03;2.00;75.60
12847;DHT22;6492;48.128;8.320;2023-04-25T05:31:06;2.40;76.40
12847;DHT22;6492;48.128;8.320;2023-04-25T05:35:08;2.60;76.80
12847;DHT22;6492;48.128;8.320;2023-04-25T05:39:10;2.70;77.10
12847;DHT22;6492;48.128;8.320;2023-04-25T05:43:13;2.80;77.30
12847;DHT22;6492;48.128;8.320;2023-04-25T05:47:15;2.90;77.40
12847;DHT22;6492;48.128;8.320;2023-04-25T05:51:35;3.00;77.40
12847;DHT22;6492;48.128;8.320;2023-04-25T05:55:44;3.20;77.60
12847;DHT22;6492;48.128;8.320;2023-04-25T05:59:47;3.30;77.60
12847;DHT22;6492;48.128;8.320;2023-04-25T06:04:10;3.40;77.50
12847;DHT22;6492;48.128;8.320;2023-04-25T06:08:12;3.50;77.20
12847;DHT22;6492;48.128;8.320;2023-04-25T06:12:14;3.60;76.70
12847;DHT22;6492;48.128;8.320;2023-04-25T06:16:17;3.70;76.10
12847;DHT22;6492;48.128;8.320;2023-04-25T06:20:19;3.70;74.60
12847;DHT22;6492;48.128;8.320;2023-04-25T06:24:23;3.80;73.00
12847;DHT22;6492;48.128;8.320;2023-04-25T06:28:25;3.80;71.40
12847;DHT22;6492;48.128;8.320;2023-04-25T06:32:28;3.80;68.20
12847;DHT22;6492;48.128;8.320;2023-04-25T06:36:30;3.90;65.80
12847;DHT22;6492;48.128;8.320;2023-04-25T06:40:32;3.80;63.80
12847;DHT22;6492;48.128;8.320;2023-04-25T06:44:34;3.80;62.20
12847;DHT22;6492;48.128;8.320;2023-04-25T06:48:37;3.80;61.90
12847;DHT22;6492;48.128;8.320;2023-04-25T06:52:41;3.80;62.10
12847;DHT22;6492;48.128;8.320;2023-04-25T06:56:43;3.70;61.90
12847;DHT22;6492;48.128;8.320;2023-04-25T07:00:45;3.60;58.30
12847;DHT22;6492;48.128;8.320;2023-04-25T07:04:48;3.40;56.80
12847;DHT22;6492;48.128;8.320;2023-04-25T07:08:49;3.20;56.90
12847;DHT22;6492;48.128;8.320;2023-04-25T07:12:54;3.00;56.30
12847;DHT22;6492;48.128;8.320;2023-04-25T07:16:56;2.90;57.60
12847;DHT22;6492;48.128;8.320;2023-04-25T07:21:00;2.80;58.00
12847;DHT22;6492;48.128;8.320;2023-04-25T07:25:02;2.70;58.00
12847;DHT22;6492;48.128;8.320;2023-04-25T07:29:04;2.50;57.40
12847;DHT22;6492;48.128;8.320;2023-04-25T07:33:06;2.40;57.20
12847;DHT22;6492;48.128;8.320;2023-04-25T07:37:09;2.20;57.80
12847;DHT22;6492;48.128;8.320;2023-04-25T07:41:11;2.20;59.20
12847;DHT22;6492;48.128;8.320;2023-04-25T07:45:13;2.20;59.90
12847;DHT22;6492;48.128;8.320;2023-04-25T07:49:15;2.10;60.40
12847;DHT22;6492;48.128;8.320;2023-04-25T07:53:19;2.10;60.60
12847;DHT22;6492;48.128;8.320;2023-04-25T07:57:21;2.00;59.70
12847;DHT22;6492;48.128;8.320;2023-04-25T08:01:22;1.90;59.20
12847;DHT22;6492;48.128;8.320;2023-04-25T08:05:24;1.80;60.00
12847;DHT22;6492;48.128;8.320;2023-04-25T08:09:27;1.80;60.90
12847;DHT22;6492;48.128;8.320;2023-04-25T08:13:44;2.10;63.70
12847;DHT22;6492;48.128;8.320;2023-04-25T08:17:45;2.70;66.10
12847;DHT22;6492;48.128;8.320;2023-04-25T08:21:47;3.30;64.50
12847;DHT22;6492;48.128;8.320;2023-04-25T08:25:50;3.60;58.00
12847;DHT22;6492;48.128;8.320;2023-04-25T08:29:52;3.40;52.50
12847;DHT22;6492;48.128;8.320;2023-04-25T08:33:54;3.40;54.40
12847;DHT22;6492;48.128;8.320;2023-04-25T08:37:56;3.40;54.70
12847;DHT22;6492;48.128;8.320;2023-04-25T08:41:59;3.50;56.20
12847;DHT22;6492;48.128;8.320;2023-04-25T08:46:02;3.70;57.20
12847;DHT22;6492;48.128;8.320;2023-04-25T08:50:05;3.80;52.80
12847;DHT22;6492;48.128;8.320;2023-04-25T08:54:09;3.80;51.30
12847;DHT22;6492;48.128;8.320;2023-04-25T08:58:12;3.80;49.50
12847;DHT22;6492;48.128;8.320;2023-04-25T09:02:14;3.80;48.80
12847;DHT22;6492;48.128;8.320;2023-04-25T09:06:19;3.90;51.80
12847;DHT22;6492;48.128;8.320;2023-04-25T09:10:21;4.00;49.80
12847;DHT22;6492;48.128;8.320;2023-04-25T09:14:24;3.80;47.90
12847;DHT22;6492;48.128;8.320;2023-04-25T09:18:29;3.70;51.20
12847;DHT22;6492;48.128;8.320;2023-04-25T09:22:31;3.80;51.90
12847;DHT22;6492;48.128;8.320;2023-04-25T09:26:34;3.70;53.40
12847;DHT22;6492;48.128;8.320;2023-04-25T09:30:37;3.90;56.40
12847;DHT22;6492;48.128;8.320;2023-04-25T09:34:39;4.00;51.40
12847;DHT22;6492;48.128;8.320;2023-04-25T09:38:43;4.20;53.70
12847;DHT22;6492;48.128;8.320;2023-04-25T09:42:45;4.50;52.40
12847;DHT22;6492;48.128;8.320;2023-04-25T09:47:01;4.80;49.40
12847;DHT22;6492;48.128;8.320;2023-04-25T09:51:05;5.10;48.40
12847;DHT22;6492;48.128;8.320;2023-04-25T09:55:07;5.30;47.50
12847;DHT22;6492;48.128;8.320;2023-04-25T09:59:09;5.40;43.50
12847;DHT22;6492;48.128;8.320;2023-04-25T10:03:15;5.80;43.10
12847;DHT22;6492;48.128;8.320;2023-04-25T10:07:19;6.10;40.60
12847;DHT22;6492;48.128;8.320;2023-04-25T10:11:22;6.40;39.10
12847;DHT22;6492;48.128;8.320;2023-04-25T10:15:26;6.70;38.00
12847;DHT22;6492;48.128;8.320;2023-04-25T10:19:30;6.60;33.30
12847;DHT22;6492;48.128;8.320;2023-04-25T10:23:32;6.30;33.10
12847;DHT22;6492;48.128;8.320;2023-04-25T10:27:35;5.90;34.00
12847;DHT22;6492;48.128;8.320;2023-04-25T10:31:45;5.40;33.90
12847;DHT22;6492;48.128;8.320;2023-04-25T10:35:49;5.30;37.40
12847;DHT22;6492;48.128;8.320;2023-04-25T10:39:50;5.50;37.30
12847;DHT22;6492;48.128;8.320;2023-04-25T10:43:59;5.70;38.50
12847;DHT22;6492;48.128;8.320;2023-04-25T10:48:25;6.00;36.30
12847;DHT22;6492;48.128;8.320;2023-04-25T10:52:29;5.80;36.50
12847;DHT22;6492;48.128;8.320;2023-04-25T10:56:32;6.20;39.70
12847;DHT22;6492;48.128;8.320;2023-04-25T11:00:35;6.50;34.40
12847;DHT22;6492;48.128;8.320;2023-04-25T11:04:40;6.50;34.60
12847;DHT22;6492;48.128;8.320;2023-04-25T11:08:48;6.50;35.40
12847;DHT22;6492;48.128;8.320;2023-04-25T11:12:51;7.30;36.40
12847;DHT22;6492;48.128;8.320;2023-04-25T11:16:53;7.50;33.80
12847;DHT22;6492;48.128;8.320;2023-04-25T11:20:56;7.70;31.40
12847;DHT22;6492;48.128;8.320;2023-04-25T11:25:04;8.30;30.80
12847;DHT22;6492;48.128;8.320;2023-04-25T11:29:06;8.50;29.30
12847;DHT22;6492;48.128;8.320;2023-04-25T11:33:09;8.80;27.30
12847;DHT22;6492;48.128;8.320;2023-04-25T11:37:11;8.70;26.30
12847;DHT22;6492;48.128;8.320;2023-04-25T11:41:15;8.70;24.70
12847;DHT22;6492;48.128;8.320;2023-04-25T11:45:17;8.70;24.40
12847;DHT22;6492;48.128;8.320;2023-04-25T11:49:19;8.40;22.60
12847;DHT22;6492;48.128;8.320;2023-04-25T11:53:22;8.00;21.80
12847;DHT22;6492;48.128;8.320;2023-04-25T11:57:26;7.70;25.50
12847;DHT22;6492;48.128;8.320;2023-04-25T12:01:29;7.80;25.60
12847;DHT22;6492;48.128;8.320;2023-04-25T12:05:31;7.70;25.10
12847;DHT22;6492;48.128;8.320;2023-04-25T12:09:34;8.20;25.30
12847;DHT22;6492;48.128;8.320;2023-04-25T12:13:37;8.50;24.40
12847;DHT22;6492;48.128;8.320;2023-04-25T12:17:39;8.70;23.40
12847;DHT22;6492;48.128;8.320;2023-04-25T12:22:18;8.90;23.90
12847;DHT22;6492;48.128;8.320;2023-04-25T12:26:20;9.30;22.30
12847;DHT22;6492;48.128;8.320;2023-04-25T12:30:24;9.30;21.40
12847;DHT22;6492;48.128;8.320;2023-04-25T12:34:26;9.30;19.00
12847;DHT22;6492;48.128;8.320;2023-04-25T12:38:29;9.30;19.90
12847;DHT22;6492;48.128;8.320;2023-04-25T12:42:31;9.60;18.00
12847;DHT22;6492;48.128;8.320;2023-04-25T12:46:35;9.80;19.90
12847;DHT22;6492;48.128;8.320;2023-04-25T12:50:37;9.90;19.30
12847;DHT22;6492;48.128;8.320;2023-04-25T12:54:39;10.10;18.20
12847;DHT22;6492;48.128;8.320;2023-04-25T12:58:40;10.00;16.10
12847;DHT22;6492;48.128;8.320;2023-04-25T13:02:46;9.50;17.20
12847;DHT22;6492;48.128;8.320;2023-04-25T13:06:47;9.00;17.60
12847;DHT22;6492;48.128;8.320;2023-04-25T13:10:49;8.20;20.30
12847;DHT22;6492;48.128;8.320;2023-04-25T13:14:51;7.60;24.90
12847;DHT22;6492;48.128;8.320;2023-04-25T13:18:54;7.50;28.40
12847;DHT22;6492;48.128;8.320;2023-04-25T13:22:57;8.10;30.30
12847;DHT22;6492;48.128;8.320;2023-04-25T13:26:58;8.50;26.20
12847;DHT22;6492;48.128;8.320;2023-04-25T13:31:00;8.20;23.90
12847;DHT22;6492;48.128;8.320;2023-04-25T13:35:04;7.90;26.50
12847;DHT22;6492;48.128;8.320;2023-04-25T13:39:06;7.70;27.60
12847;DHT22;6492;48.128;8.320;2023-04-25T13:43:08;7.30;27.70
12847;DHT22;6492;48.128;8.320;2023-04-25T13:47:09;7.00;30.10
12847;DHT22;6492;48.128;8.320;2023-04-25T13:51:39;6.40;29.70
12847;DHT22;6492;48.128;8.320;2023-04-25T13:55:41;5.70;34.80
12847;DHT22;6492;48.128;8.320;2023-04-25T13:59:42;5.00;37.60
12847;DHT22;6492;48.128;8.320;2023-04-25T14:03:44;4.60;39.90
12847;DHT22;6492;48.128;8.320;2023-04-25T14:07:48;4.60;46.90
12847;DHT22;6492;48.128;8.320;2023-04-25T14:11:50;5.00;50.00
12847;DHT22;6492;48.128;8.320;2023-04-25T14:15:52;5.20;44.20
12847;DHT22;6492;48.128;8.320;2023-04-25T14:19:54;5.40;44.50
12847;DHT22;6492;48.128;8.320;2023-04-25T14:23:57;5.60;39.50
12847;DHT22;6492;48.128;8.320;2023-04-25T14:27:59;5.70;37.60
12847;DHT22;6492;48.128;8.320;2023-04-25T14:32:02;6.00;38.50
12847;DHT22;6492;48.128;8.320;2023-04-25T14:41:04;6.60;38.50
12847;DHT22;6492;48.128;8.320;2023-04-25T14:45:22;7.50;34.10
12847;DHT22;6492;48.128;8.320;2023-04-25T14:49:24;8.30;33.70
12847;DHT22;6492;48.128;8.320;2023-04-25T14:58:09;9.50;24.60
12847;DHT22;6492;48.128;8.320;2023-04-25T15:02:12;9.90;19.80
12847;DHT22;6492;48.128;8.320;2023-04-25T15:06:14;9.90;19.40
12847;DHT22;6492;48.128;8.320;2023-04-25T15:10:50;9.70;19.70
12847;DHT22;6492;48.128;8.320;2023-04-25T15:14:53;9.20;19.20
12847;DHT22;6492;48.128;8.320;2023-04-25T15:19:26;8.30;23.10
12847;DHT22;6492;48.128;8.320;2023-04-25T15:23:39;7.40;26.10
12847;DHT22;6492;48.128;8.320;2023-04-25T15:28:08;6.90;29.30
12847;DHT22;6492;48.128;8.320;2023-04-25T15:32:30;7.30;30.00
12847;DHT22;6492;48.128;8.320;2023-04-25T15:36:36;7.40;27.90
12847;DHT22;6492;48.128;8.320;2023-04-25T15:41:06;7.20;27.20
12847;DHT22;6492;48.128;8.320;2023-04-25T15:45:15;7.20;28.20
12847;DHT22;6492;48.128;8.320;2023-04-25T15:49:19;7.60;26.20
12847;DHT22;6492;48.128;8.320;2023-04-25T15:53:22;7.80;23.10
12847;DHT22;6492;48.128;8.320;2023-04-25T15:57:24;7.70;25.00
12847;DHT22;6492;48.128;8.320;2023-04-25T16:01:26;7.70;23.80
12847;DHT22;6492;48.128;8.320;2023-04-25T16:05:31;7.40;24.60
12847;DHT22;6492;48.128;8.320;2023-04-25T16:09:56;7.80;28.30
12847;DHT22;6492;48.128;8.320;2023-04-25T16:14:02;8.50;25.10
12847;DHT22;6492;48.128;8.320;2023-04-25T16:18:09;8.90;22.50
12847;DHT22;6492;48.128;8.320;2023-04-25T16:22:19;8.50;20.30
12847;DHT22;6492;48.128;8.320;2023-04-25T16:26:21;8.00;20.80
12847;DHT22;6492;48.128;8.320;2023-04-25T16:30:23;7.80;23.30
12847;DHT22;6492;48.128;8.320;2023-04-25T16:34:25;7.90;21.60
12847;DHT22;6492;48.128;8.320;2023-04-25T16:38:29;7.70;20.90
12847;DHT22;6492;48.128;8.320;2023-04-25T16:42:30;7.50;21.80
12847;DHT22;6492;48.128;8.320;2023-04-25T16:46:32;7.10;23.60
12847;DHT22;6492;48.128;8.320;2023-04-25T16:50:34;6.80;23.90
12847;DHT22;6492;48.128;8.320;2023-04-25T16:54:37;6.60;25.90
12847;DHT22;6492;48.128;8.320;2023-04-25T16:58:39;6.40;27.40
12847;DHT22;6492;48.128;8.320;2023-04-25T17:02:41;6.30;29.20
12847;DHT22;6492;48.128;8.320;2023-04-25T17:06:53;6.10;30.50
12847;DHT22;6492;48.128;8.320;2023-04-25T17:10:59;6.00;31.70
12847;DHT22;6492;48.128;8.320;2023-04-25T17:15:07;5.80;33.50
12847;DHT22;6492;48.128;8.320;2023-04-25T17:19:10;5.60;34.50
12847;DHT22;6492;48.128;8.320;2023-04-25T17:23:12;5.50;35.30
12847;DHT22;6492;48.128;8.320;2023-04-25T17:27:22;5.40;36.90
12847;DHT22;6492;48.128;8.320;2023-04-25T17:31:32;5.30;37.70
12847;DHT22;6492;48.128;8.320;2023-04-25T17:35:44;5.20;39.60
12847;DHT22;6492;48.128;8.320;2023-04-25T17:39:47;5.10;41.20
12847;DHT22;6492;48.128;8.320;2023-04-25T17:43:50;4.90;42.30
12847;DHT22;6492;48.128;8.320;2023-04-25T17:47:52;4.80;43.40
12847;DHT22;6492;48.128;8.320;2023-04-25T17:52:00;4.80;42.70
12847;DHT22;6492;48.128;8.320;2023-04-25T17:56:02;4.70;43.10
12847;DHT22;6492;48.128;8.320;2023-04-25T18:00:08;4.60;42.60
12847;DHT22;6492;48.128;8.320;2023-04-25T18:04:11;4.50;44.50
12847;DHT22;6492;48.128;8.320;2023-04-25T18:08:33;4.50;46.40
12847;DHT22;6492;48.128;8.320;2023-04-25T18:12:36;4.40;46.80
12847;DHT22;6492;48.128;8.320;2023-04-25T18:16:41;4.40;46.60
12847;DHT22;6492;48.128;8.320;2023-04-25T18:20:42;4.20;47.70
12847;DHT22;6492;48.128;8.320;2023-04-25T18:24:44;4.20;48.50
12847;DHT22;6492;48.128;8.320;2023-04-25T18:28:46;4.10;49.90
12847;DHT22;6492;48.128;8.320;2023-04-25T18:33:06;4.10;50.30
12847;DHT22;6492;48.128;8.320;2023-04-25T18:37:09;4.10;51.00
12847;DHT22;6492;48.128;8.320;2023-04-25T18:41:13;4.00;51.30
12847;DHT22;6492;48.128;8.320;2023-04-25T18:45:15;4.00;51.60
12847;DHT22;6492;48.128;8.320;2023-04-25T18:49:21;3.90;52.60
12847;DHT22;6492;48.128;8.320;2023-04-25T18:53:22;3.90;54.70
12847;DHT22;6492;48.128;8.320;2023-04-25T18:57:51;3.80;55.30
12847;DHT22;6492;48.128;8.320;2023-04-25T19:01:52;3.70;55.50
12847;DHT22;6492;48.128;8.320;2023-04-25T19:05:56;3.70;56.00
12847;DHT22;6492;48.128;8.320;2023-04-25T19:09:59;3.60;56.80
12847;DHT22;6492;48.128;8.320;2023-04-25T19:14:06;3.50;57.20
12847;DHT22;6492;48.128;8.320;2023-04-25T19:18:07;3.40;57.20
12847;DHT22;6492;48.128;8.320;2023-04-25T19:22:28;3.20;57.40
12847;DHT22;6492;48.128;8.320;2023-04-25T19:26:35;3.00;58.20
12847;DHT22;6492;48.128;8.320;2023-04-25T19:30:37;2.80;59.40
12847;DHT22;6492;48.128;8.320;2023-04-25T19:34:40;2.70;60.90
12847;DHT22;6492;48.128;8.320;2023-04-25T19:38:43;2.50;61.00
12847;DHT22;6492;48.128;8.320;2023-04-25T19:42:46;2.30;61.20
12847;DHT22;6492;48.128;8.320;2023-04-25T19:47:04;2.10;61.30
12847;DHT22;6492;48.128;8.320;2023-04-25T19:51:07;1.90;63.40
12847;DHT22;6492;48.128;8.320;2023-04-25T19:55:10;1.90;64.90
12847;DHT22;6492;48.128;8.320;2023-04-25T19:59:35;1.80;65.90
12847;DHT22;6492;48.128;8.320;2023-04-25T20:03:49;1.80;66.70
12847;DHT22;6492;48.128;8.320;2023-04-25T20:07:51;1.80;67.70
12847;DHT22;6492;48.128;8.320;2023-04-25T20:11:55;1.80;69.00
12847;DHT22;6492;48.128;8.320;2023-04-25T20:15:59;1.90;70.00
12847;DHT22;6492;48.128;8.320;2023-04-25T20:20:01;2.10;70.90
12847;DHT22;6492;48.128;8.320;2023-04-25T20:24:22;2.20;71.30
12847;DHT22;6492;48.128;8.320;2023-04-25T20:28:25;2.40;72.10
12847;DHT22;6492;48.128;8.320;2023-04-25T20:32:27;2.50;72.70
12847;DHT22;6492;48.128;8.320;2023-04-25T20:36:37;2.60;73.70
12847;DHT22;6492;48.128;8.320;2023-04-25T20:40:39;2.70;73.10
12847;DHT22;6492;48.128;8.320;2023-04-25T20:44:42;2.80;73.20
12847;DHT22;6492;48.128;8.320;2023-04-25T20:48:44;2.90;73.50
12847;DHT22;6492;48.128;8.320;2023-04-25T20:52:46;2.90;73.60
12847;DHT22;6492;48.128;8.320;2023-04-25T20:56:48;2.90;73.60
12847;DHT22;6492;48.128;8.320;2023-04-25T21:00:52;2.80;73.10
12847;DHT22;6492;48.128;8.320;2023-04-25T21:04:54;2.70;72.40
12847;DHT22;6492;48.128;8.320;2023-04-25T21:08:56;2.60;71.90
12847;DHT22;6492;48.128;8.320;2023-04-25T21:12:57;2.40;71.30
12847;DHT22;6492;48.128;8.320;2023-04-25T21:17:00;2.20;71.00
12847;DHT22;6492;48.128;8.320;2023-04-25T21:21:03;2.10;71.20
12847;DHT22;6492;48.128;8.320;2023-04-25T21:25:05;2.00;71.40
12847;DHT22;6492;48.128;8.320;2023-04-25T21:29:07;1.90;71.70
12847;DHT22;6492;48.128;8.320;2023-04-25T21:33:11;1.90;72.40
12847;DHT22;6492;48.128;8.320;2023-04-25T21:37:12;1.90;72.90
12847;DHT22;6492;48.128;8.320;2023-04-25T21:41:14;1.90;73.30
12847;DHT22;6492;48.128;8.320;2023-04-25T21:45:46;1.90;73.60
12847;DHT22;6492;48.128;8.320;2023-04-25T21:49:49;1.90;74.00
12847;DHT22;6492;48.128;8.320;2023-04-25T21:53:51;2.00;74.40
12847;DHT22;6492;48.128;8.320;2023-04-25T21:57:52;2.10;74.90
12847;DHT22;6492;48.128;8.320;2023-04-25T22:01:54;2.20;75.20
12847;DHT22;6492;48.128;8.320;2023-04-25T22:05:57;2.40;75.80
12847;DHT22;6492;48.128;8.320;2023-04-25T22:09:59;2.50;76.10
12847;DHT22;6492;48.128;8.320;2023-04-25T22:14:01;2.50;76.00
12847;DHT22;6492;48.128;8.320;2023-04-25T22:18:04;2.50;75.90
12847;DHT22;6492;48.128;8.320;2023-04-25T22:22:07;2.40;75.50
12847;DHT22;6492;48.128;8.320;2023-04-25T22:26:09;2.40;75.40
12847;DHT22;6492;48.128;8.320;2023-04-25T22:30:12;2.30;75.30
12847;DHT22;6492;48.128;8.320;2023-04-25T22:34:15;2.40;75.80
12847;DHT22;6492;48.128;8.320;2023-04-25T22:38:19;2.50;76.10
12847;DHT22;6492;48.128;8.320;2023-04-25T22:42:21;2.40;75.90
12847;DHT22;6492;48.128;8.320;2023-04-25T22:46:23;2.30;75.80
12847;DHT22;6492;48.128;8.320;2023-04-25T22:50:25;2.20;75.10
12847;DHT22;6492;48.128;8.320;2023-04-25T22:54:28;2.00;74.50
12847;DHT22;6492;48.128;8.320;2023-04-25T22:58:30;1.80;73.90
12847;DHT22;6492;48.128;8.320;2023-04-25T23:02:32;1.60;73.60
12847;DHT22;6492;48.128;8.320;2023-04-25T23:06:34;1.50;73.50
12847;DHT22;6492;48.128;8.320;2023-04-25T23:10:38;1.40;73.60
12847;DHT22;6492;48.128;8.320;2023-04-25T23:14:40;1.30;73.90
12847;DHT22;6492;48.128;8.320;2023-04-25T23:18:42;1.20;74.10
12847;DHT22;6492;48.128;8.320;2023-04-25T23:22:44;1.20;74.30
12847;DHT22;6492;48.128;8.320;2023-04-25T23:26:47;1.20;74.70
12847;DHT22;6492;48.128;8.320;2023-04-25T23:30:50;1.20;75.10
12847;DHT22;6492;48.128;8.320;2023-04-25T23:34:51;1.40;75.70
12847;DHT22;6492;48.128;8.320;2023-04-25T23:38:59;1.50;76.20
12847;DHT22;6492;48.128;8.320;2023-04-25T23:43:03;1.60;76.50
12847;DHT22;6492;48.128;8.320;2023-04-25T23:47:05;1.70;76.80
12847;DHT22;6492;48.128;8.320;2023-04-25T23:51:06;1.80;77.00
12847;DHT22;6492;48.128;8.320;2023-04-25T23:55:08;1.80;77.20
12847;DHT22;6492;48.128;8.320;2023-04-25T23:59:11;1.90;77.40
